sensor_id;sensor_type;location;lat;lon;timestamp;P1;durP1;ratioP1;P2;durP2;ratioP2
44862;SDS011;30597;49.628;10.850;2023-09-18T00:02:20;4.00;;;3.70;;
44862;SDS011;30597;49.628;10.850;2023-09-18T00:04:45;4.80;;;3.20;;
44862;SDS011;30597;49.628;10.850;2023-09-18T00:07:11;3.73;;;2.80;;
44862;SDS011;30597;49.628;10.850;2023-09-18T00:09:36;3.40;;;3.10;;
44862;SDS011;30597;49.628;10.850;2023-09-18T00:12:02;3.20;;;3.00;;
44862;SDS011;30597;49.628;10.850;2023-09-18T00:14:28;3.60;;;3.27;;
44862;SDS011;30597;49.628;10.850;2023-09-18T00:16:54;4.00;;;3.07;;
44862;SDS011;30597;49.628;10.850;2023-09-18T00:19:22;3.23;;;3.03;;
44862;SDS011;30597;49.628;10.850;2023-09-18T00:21:48;3.47;;;3.17;;
44862;SDS011;30597;49.628;10.850;2023-09-18T00:24:14;3.10;;;2.90;;
44862;SDS011;30597;49.628;10.850;2023-09-18T00:26:39;3.53;;;3.23;;
44862;SDS011;30597;49.628;10.850;2023-09-18T00:29:05;3.60;;;3.30;;
44862;SDS011;30597;49.628;10.850;2023-09-18T00:31:30;4.13;;;3.00;;
44862;SDS011;30597;49.628;10.850;2023-09-18T00:33:56;4.07;;;3.23;;
44862;SDS011;30597;49.628;10.850;2023-09-18T00:36:21;3.70;;;3.40;;
44862;SDS011;30597;49.628;10.850;2023-09-18T00:38:47;3.43;;;3.00;;
44862;SDS011;30597;49.628;10.850;2023-09-18T00:41:12;3.80;;;3.27;;
44862;SDS011;30597;49.628;10.850;2023-09-18T00:43:38;4.10;;;3.70;;
44862;SDS011;30597;49.628;10.850;2023-09-18T00:46:03;3.03;;;2.80;;
44862;SDS011;30597;49.628;10.850;2023-09-18T00:48:29;3.17;;;2.87;;
44862;SDS011;30597;49.628;10.850;2023-09-18T00:50:55;3.63;;;3.33;;
44862;SDS011;30597;49.628;10.850;2023-09-18T00:53:21;3.40;;;3.10;;
44862;SDS011;30597;49.628;10.850;2023-09-18T00:55:50;3.20;;;3.00;;
44862;SDS011;30597;49.628;10.850;2023-09-18T00:58:19;3.40;;;3.10;;
44862;SDS011;30597;49.628;10.850;2023-09-18T01:00:45;3.83;;;3.53;;
44862;SDS011;30597;49.628;10.850;2023-09-18T01:03:10;3.10;;;2.90;;
44862;SDS011;30597;49.628;10.850;2023-09-18T01:05:36;2.90;;;2.70;;
44862;SDS011;30597;49.628;10.850;2023-09-18T01:08:02;3.47;;;3.17;;
44862;SDS011;30597;49.628;10.850;2023-09-18T01:10:30;2.50;;;2.30;;
44862;SDS011;30597;49.628;10.850;2023-09-18T01:13:08;3.47;;;3.17;;
44862;SDS011;30597;49.628;10.850;2023-09-18T01:15:48;2.80;;;2.60;;
44862;SDS011;30597;49.628;10.850;2023-09-18T01:18:18;5.00;;;2.90;;
44862;SDS011;30597;49.628;10.850;2023-09-18T01:20:44;3.30;;;3.00;;
44862;SDS011;30597;49.628;10.850;2023-09-18T01:23:10;3.50;;;3.20;;
44862;SDS011;30597;49.628;10.850;2023-09-18T01:25:36;5.10;;;3.50;;
44862;SDS011;30597;49.628;10.850;2023-09-18T01:28:02;3.47;;;3.17;;
44862;SDS011;30597;49.628;10.850;2023-09-18T01:30:28;3.47;;;3.17;;
44862;SDS011;30597;49.628;10.850;2023-09-18T01:32:54;3.43;;;3.13;;
44862;SDS011;30597;49.628;10.850;2023-09-18T01:35:22;3.33;;;2.97;;
44862;SDS011;30597;49.628;10.850;2023-09-18T01:37:54;3.40;;;3.10;;
44862;SDS011;30597;49.628;10.850;2023-09-18T01:40:24;3.47;;;3.23;;
44862;SDS011;30597;49.628;10.850;2023-09-18T01:42:51;3.60;;;3.30;;
44862;SDS011;30597;49.628;10.850;2023-09-18T01:45:17;3.20;;;3.00;;
44862;SDS011;30597;49.628;10.850;2023-09-18T01:47:43;3.60;;;3.30;;
44862;SDS011;30597;49.628;10.850;2023-09-18T01:50:09;2.87;;;2.67;;
44862;SDS011;30597;49.628;10.850;2023-09-18T01:52:34;3.23;;;3.00;;
44862;SDS011;30597;49.628;10.850;2023-09-18T01:55:01;3.57;;;3.30;;
44862;SDS011;30597;49.628;10.850;2023-09-18T01:57:26;3.67;;;3.37;;
44862;SDS011;30597;49.628;10.850;2023-09-18T01:59:52;3.40;;;3.10;;
44862;SDS011;30597;49.628;10.850;2023-09-18T02:02:17;3.97;;;3.57;;
44862;SDS011;30597;49.628;10.850;2023-09-18T02:04:43;2.80;;;2.60;;
44862;SDS011;30597;49.628;10.850;2023-09-18T02:07:10;3.67;;;3.37;;
44862;SDS011;30597;49.628;10.850;2023-09-18T02:09:35;3.47;;;3.17;;
44862;SDS011;30597;49.628;10.850;2023-09-18T02:12:01;2.83;;;2.63;;
44862;SDS011;30597;49.628;10.850;2023-09-18T02:14:27;3.40;;;2.73;;
44862;SDS011;30597;49.628;10.850;2023-09-18T02:16:56;3.10;;;2.90;;
44862;SDS011;30597;49.628;10.850;2023-09-18T02:19:21;3.27;;;2.90;;
44862;SDS011;30597;49.628;10.850;2023-09-18T02:21:47;3.27;;;3.03;;
44862;SDS011;30597;49.628;10.850;2023-09-18T02:24:12;3.23;;;2.93;;
44862;SDS011;30597;49.628;10.850;2023-09-18T02:26:38;3.30;;;3.10;;
44862;SDS011;30597;49.628;10.850;2023-09-18T02:29:05;3.13;;;2.93;;
44862;SDS011;30597;49.628;10.850;2023-09-18T02:31:36;3.30;;;3.00;;
44862;SDS011;30597;49.628;10.850;2023-09-18T02:34:01;2.83;;;2.60;;
44862;SDS011;30597;49.628;10.850;2023-09-18T02:36:27;3.10;;;2.90;;
44862;SDS011;30597;49.628;10.850;2023-09-18T02:38:52;3.30;;;3.10;;
44862;SDS011;30597;49.628;10.850;2023-09-18T02:41:18;2.83;;;2.63;;
44862;SDS011;30597;49.628;10.850;2023-09-18T02:43:43;3.07;;;2.77;;
44862;SDS011;30597;49.628;10.850;2023-09-18T02:46:09;4.57;;;2.53;;
44862;SDS011;30597;49.628;10.850;2023-09-18T02:48:34;3.07;;;2.87;;
44862;SDS011;30597;49.628;10.850;2023-09-18T02:51:00;2.80;;;2.60;;
44862;SDS011;30597;49.628;10.850;2023-09-18T02:53:26;3.23;;;2.93;;
44862;SDS011;30597;49.628;10.850;2023-09-18T02:55:55;3.90;;;3.03;;
44862;SDS011;30597;49.628;10.850;2023-09-18T02:58:21;2.97;;;2.77;;
44862;SDS011;30597;49.628;10.850;2023-09-18T03:00:48;2.27;;;2.17;;
44862;SDS011;30597;49.628;10.850;2023-09-18T03:03:15;3.63;;;3.33;;
44862;SDS011;30597;49.628;10.850;2023-09-18T03:05:41;3.50;;;2.63;;
44862;SDS011;30597;49.628;10.850;2023-09-18T03:08:08;3.23;;;2.93;;
44862;SDS011;30597;49.628;10.850;2023-09-18T03:10:35;3.50;;;2.97;;
44862;SDS011;30597;49.628;10.850;2023-09-18T03:13:01;3.03;;;2.73;;
44862;SDS011;30597;49.628;10.850;2023-09-18T03:15:27;4.10;;;3.30;;
44862;SDS011;30597;49.628;10.850;2023-09-18T03:17:53;3.70;;;2.73;;
44862;SDS011;30597;49.628;10.850;2023-09-18T03:20:21;3.50;;;3.30;;
44862;SDS011;30597;49.628;10.850;2023-09-18T03:22:47;3.23;;;2.93;;
44862;SDS011;30597;49.628;10.850;2023-09-18T03:25:13;2.90;;;2.70;;
44862;SDS011;30597;49.628;10.850;2023-09-18T03:27:39;2.73;;;2.53;;
44862;SDS011;30597;49.628;10.850;2023-09-18T03:30:04;3.30;;;2.70;;
44862;SDS011;30597;49.628;10.850;2023-09-18T03:32:31;3.47;;;3.17;;
44862;SDS011;30597;49.628;10.850;2023-09-18T03:34:57;3.00;;;2.80;;
44862;SDS011;30597;49.628;10.850;2023-09-18T03:37:23;2.93;;;2.70;;
44862;SDS011;30597;49.628;10.850;2023-09-18T03:39:48;3.27;;;2.97;;
44862;SDS011;30597;49.628;10.850;2023-09-18T03:42:14;3.10;;;2.90;;
44862;SDS011;30597;49.628;10.850;2023-09-18T03:44:39;5.20;;;3.87;;
44862;SDS011;30597;49.628;10.850;2023-09-18T03:47:04;3.43;;;3.13;;
44862;SDS011;30597;49.628;10.850;2023-09-18T03:49:30;3.00;;;2.70;;
44862;SDS011;30597;49.628;10.850;2023-09-18T03:51:56;2.83;;;2.63;;
44862;SDS011;30597;49.628;10.850;2023-09-18T03:54:21;3.00;;;2.80;;
44862;SDS011;30597;49.628;10.850;2023-09-18T03:56:47;2.80;;;2.60;;
44862;SDS011;30597;49.628;10.850;2023-09-18T03:59:12;3.33;;;3.03;;
44862;SDS011;30597;49.628;10.850;2023-09-18T04:01:39;2.83;;;2.63;;
44862;SDS011;30597;49.628;10.850;2023-09-18T04:04:04;3.03;;;2.83;;
44862;SDS011;30597;49.628;10.850;2023-09-18T04:06:40;2.73;;;2.53;;
44862;SDS011;30597;49.628;10.850;2023-09-18T04:09:08;3.00;;;2.70;;
44862;SDS011;30597;49.628;10.850;2023-09-18T04:11:34;2.40;;;2.30;;
44862;SDS011;30597;49.628;10.850;2023-09-18T04:14:00;4.00;;;2.70;;
44862;SDS011;30597;49.628;10.850;2023-09-18T04:16:26;2.83;;;2.63;;
44862;SDS011;30597;49.628;10.850;2023-09-18T04:19:02;3.07;;;2.87;;
44862;SDS011;30597;49.628;10.850;2023-09-18T04:21:28;2.93;;;2.73;;
44862;SDS011;30597;49.628;10.850;2023-09-18T04:23:57;2.80;;;2.60;;
44862;SDS011;30597;49.628;10.850;2023-09-18T04:26:26;2.93;;;2.73;;
44862;SDS011;30597;49.628;10.850;2023-09-18T04:28:59;2.70;;;2.50;;
44862;SDS011;30597;49.628;10.850;2023-09-18T04:31:25;3.03;;;2.83;;
44862;SDS011;30597;49.628;10.850;2023-09-18T04:33:52;2.53;;;2.33;;
44862;SDS011;30597;49.628;10.850;2023-09-18T04:36:18;3.10;;;2.90;;
44862;SDS011;30597;49.628;10.850;2023-09-18T04:38:43;3.20;;;3.00;;
44862;SDS011;30597;49.628;10.850;2023-09-18T04:41:09;2.80;;;2.60;;
44862;SDS011;30597;49.628;10.850;2023-09-18T04:43:36;2.97;;;2.77;;
44862;SDS011;30597;49.628;10.850;2023-09-18T04:46:03;3.77;;;3.03;;
44862;SDS011;30597;49.628;10.850;2023-09-18T04:48:30;3.03;;;2.83;;
44862;SDS011;30597;49.628;10.850;2023-09-18T04:50:56;3.47;;;3.20;;
44862;SDS011;30597;49.628;10.850;2023-09-18T04:53:22;3.30;;;2.50;;
44862;SDS011;30597;49.628;10.850;2023-09-18T04:55:47;2.87;;;2.67;;
44862;SDS011;30597;49.628;10.850;2023-09-18T04:58:16;3.97;;;2.97;;
44862;SDS011;30597;49.628;10.850;2023-09-18T05:00:42;3.03;;;2.83;;
44862;SDS011;30597;49.628;10.850;2023-09-18T05:03:08;3.00;;;2.80;;
44862;SDS011;30597;49.628;10.850;2023-09-18T05:05:35;11.10;;;8.17;;
44862;SDS011;30597;49.628;10.850;2023-09-18T05:08:06;11.40;;;9.57;;
44862;SDS011;30597;49.628;10.850;2023-09-18T05:10:35;9.20;;;7.10;;
44862;SDS011;30597;49.628;10.850;2023-09-18T05:13:01;6.40;;;5.80;;
44862;SDS011;30597;49.628;10.850;2023-09-18T05:15:28;6.80;;;6.10;;
44862;SDS011;30597;49.628;10.850;2023-09-18T05:17:54;6.00;;;5.40;;
44862;SDS011;30597;49.628;10.850;2023-09-18T05:20:22;7.47;;;6.63;;
44862;SDS011;30597;49.628;10.850;2023-09-18T05:22:49;7.30;;;6.07;;
44862;SDS011;30597;49.628;10.850;2023-09-18T05:25:19;6.13;;;5.60;;
44862;SDS011;30597;49.628;10.850;2023-09-18T05:27:46;6.90;;;6.10;;
44862;SDS011;30597;49.628;10.850;2023-09-18T05:30:19;8.33;;;6.60;;
44862;SDS011;30597;49.628;10.850;2023-09-18T05:32:46;6.80;;;5.47;;
44862;SDS011;30597;49.628;10.850;2023-09-18T05:35:13;6.80;;;6.10;;
44862;SDS011;30597;49.628;10.850;2023-09-18T05:37:39;6.80;;;6.00;;
44862;SDS011;30597;49.628;10.850;2023-09-18T05:40:06;7.03;;;6.20;;
44862;SDS011;30597;49.628;10.850;2023-09-18T05:42:34;6.47;;;5.90;;
44862;SDS011;30597;49.628;10.850;2023-09-18T05:45:04;7.10;;;5.77;;
44862;SDS011;30597;49.628;10.850;2023-09-18T05:47:33;7.23;;;6.40;;
44862;SDS011;30597;49.628;10.850;2023-09-18T05:50:01;12.40;;;7.20;;
44862;SDS011;30597;49.628;10.850;2023-09-18T05:52:28;7.90;;;6.60;;
44862;SDS011;30597;49.628;10.850;2023-09-18T05:54:54;7.23;;;6.40;;
44862;SDS011;30597;49.628;10.850;2023-09-18T05:57:20;7.60;;;6.40;;
44862;SDS011;30597;49.628;10.850;2023-09-18T05:59:45;8.70;;;7.23;;
44862;SDS011;30597;49.628;10.850;2023-09-18T06:02:11;7.93;;;6.90;;
44862;SDS011;30597;49.628;10.850;2023-09-18T06:04:37;7.63;;;6.93;;
44862;SDS011;30597;49.628;10.850;2023-09-18T06:07:03;7.50;;;6.30;;
44862;SDS011;30597;49.628;10.850;2023-09-18T06:09:29;6.77;;;6.07;;
44862;SDS011;30597;49.628;10.850;2023-09-18T06:11:54;7.30;;;6.23;;
44862;SDS011;30597;49.628;10.850;2023-09-18T06:14:20;7.43;;;6.60;;
44862;SDS011;30597;49.628;10.850;2023-09-18T06:16:45;6.07;;;5.47;;
44862;SDS011;30597;49.628;10.850;2023-09-18T06:19:11;6.70;;;6.00;;
44862;SDS011;30597;49.628;10.850;2023-09-18T06:21:36;6.93;;;6.23;;
44862;SDS011;30597;49.628;10.850;2023-09-18T06:24:02;7.40;;;5.70;;
44862;SDS011;30597;49.628;10.850;2023-09-18T06:26:28;7.50;;;6.40;;
44862;SDS011;30597;49.628;10.850;2023-09-18T06:28:53;6.50;;;5.80;;
44862;SDS011;30597;49.628;10.850;2023-09-18T06:31:20;7.03;;;6.40;;
44862;SDS011;30597;49.628;10.850;2023-09-18T06:33:45;7.00;;;6.40;;
44862;SDS011;30597;49.628;10.850;2023-09-18T06:36:12;6.67;;;6.07;;
44862;SDS011;30597;49.628;10.850;2023-09-18T06:38:38;6.67;;;6.07;;
44862;SDS011;30597;49.628;10.850;2023-09-18T06:41:03;5.87;;;5.27;;
44862;SDS011;30597;49.628;10.850;2023-09-18T06:43:29;7.73;;;7.03;;
44862;SDS011;30597;49.628;10.850;2023-09-18T06:45:54;7.97;;;5.50;;
44862;SDS011;30597;49.628;10.850;2023-09-18T06:48:22;7.57;;;6.87;;
44862;SDS011;30597;49.628;10.850;2023-09-18T06:50:48;8.20;;;7.07;;
44862;SDS011;30597;49.628;10.850;2023-09-18T06:53:14;6.30;;;5.77;;
44862;SDS011;30597;49.628;10.850;2023-09-18T06:55:39;7.70;;;6.57;;
44862;SDS011;30597;49.628;10.850;2023-09-18T06:58:05;7.13;;;6.43;;
44862;SDS011;30597;49.628;10.850;2023-09-18T07:00:30;5.73;;;5.23;;
44862;SDS011;30597;49.628;10.850;2023-09-18T07:02:56;6.00;;;5.50;;
44862;SDS011;30597;49.628;10.850;2023-09-18T07:05:22;6.50;;;5.40;;
44862;SDS011;30597;49.628;10.850;2023-09-18T07:07:48;5.97;;;5.47;;
44862;SDS011;30597;49.628;10.850;2023-09-18T07:10:13;6.03;;;5.53;;
44862;SDS011;30597;49.628;10.850;2023-09-18T07:12:39;6.17;;;5.50;;
44862;SDS011;30597;49.628;10.850;2023-09-18T07:15:05;6.17;;;5.60;;
44862;SDS011;30597;49.628;10.850;2023-09-18T07:17:31;5.90;;;5.37;;
44862;SDS011;30597;49.628;10.850;2023-09-18T07:20:00;7.70;;;5.60;;
44862;SDS011;30597;49.628;10.850;2023-09-18T07:22:26;5.60;;;5.00;;
44862;SDS011;30597;49.628;10.850;2023-09-18T07:24:51;6.83;;;6.00;;
44862;SDS011;30597;49.628;10.850;2023-09-18T07:27:17;10.57;;;5.20;;
44862;SDS011;30597;49.628;10.850;2023-09-18T07:29:42;7.10;;;6.23;;
44862;SDS011;30597;49.628;10.850;2023-09-18T07:32:08;8.10;;;5.83;;
44862;SDS011;30597;49.628;10.850;2023-09-18T07:34:34;10.83;;;6.17;;
44862;SDS011;30597;49.628;10.850;2023-09-18T07:37:00;6.40;;;5.00;;
44862;SDS011;30597;49.628;10.850;2023-09-18T07:39:26;8.30;;;6.43;;
44862;SDS011;30597;49.628;10.850;2023-09-18T07:41:51;6.80;;;5.63;;
44862;SDS011;30597;49.628;10.850;2023-09-18T07:44:20;7.87;;;5.40;;
44862;SDS011;30597;49.628;10.850;2023-09-18T07:46:46;7.47;;;5.70;;
44862;SDS011;30597;49.628;10.850;2023-09-18T07:49:12;11.80;;;5.33;;
44862;SDS011;30597;49.628;10.850;2023-09-18T07:51:39;8.03;;;5.57;;
44862;SDS011;30597;49.628;10.850;2023-09-18T07:54:06;9.13;;;6.20;;
44862;SDS011;30597;49.628;10.850;2023-09-18T07:56:32;9.20;;;5.43;;
44862;SDS011;30597;49.628;10.850;2023-09-18T07:58:59;8.27;;;5.50;;
44862;SDS011;30597;49.628;10.850;2023-09-18T08:01:25;6.93;;;5.30;;
44862;SDS011;30597;49.628;10.850;2023-09-18T08:03:51;7.00;;;5.33;;
44862;SDS011;30597;49.628;10.850;2023-09-18T08:06:16;10.57;;;5.80;;
44862;SDS011;30597;49.628;10.850;2023-09-18T08:08:44;6.10;;;5.27;;
44862;SDS011;30597;49.628;10.850;2023-09-18T08:11:10;6.10;;;5.40;;
44862;SDS011;30597;49.628;10.850;2023-09-18T08:13:35;7.47;;;5.20;;
44862;SDS011;30597;49.628;10.850;2023-09-18T08:16:02;6.27;;;5.67;;
44862;SDS011;30597;49.628;10.850;2023-09-18T08:18:31;5.80;;;5.00;;
44862;SDS011;30597;49.628;10.850;2023-09-18T08:20:56;5.87;;;5.27;;
44862;SDS011;30597;49.628;10.850;2023-09-18T08:23:24;6.13;;;5.53;;
44862;SDS011;30597;49.628;10.850;2023-09-18T08:25:49;6.40;;;4.87;;
44862;SDS011;30597;49.628;10.850;2023-09-18T08:28:16;6.13;;;5.03;;
44862;SDS011;30597;49.628;10.850;2023-09-18T08:30:43;5.47;;;5.07;;
44862;SDS011;30597;49.628;10.850;2023-09-18T08:33:12;7.73;;;5.13;;
44862;SDS011;30597;49.628;10.850;2023-09-18T08:35:38;6.07;;;5.43;;
44862;SDS011;30597;49.628;10.850;2023-09-18T08:38:04;5.63;;;4.83;;
44862;SDS011;30597;49.628;10.850;2023-09-18T08:40:30;5.87;;;5.20;;
44862;SDS011;30597;49.628;10.850;2023-09-18T08:42:56;6.07;;;5.23;;
44862;SDS011;30597;49.628;10.850;2023-09-18T08:45:27;8.30;;;5.40;;
44862;SDS011;30597;49.628;10.850;2023-09-18T08:48:02;5.33;;;4.93;;
44862;SDS011;30597;49.628;10.850;2023-09-18T08:50:29;5.03;;;4.70;;
44862;SDS011;30597;49.628;10.850;2023-09-18T08:52:55;6.20;;;5.40;;
44862;SDS011;30597;49.628;10.850;2023-09-18T08:55:21;5.87;;;5.27;;
44862;SDS011;30597;49.628;10.850;2023-09-18T08:57:47;6.07;;;4.73;;
44862;SDS011;30597;49.628;10.850;2023-09-18T09:00:14;5.03;;;4.60;;
44862;SDS011;30597;49.628;10.850;2023-09-18T09:02:45;5.20;;;4.70;;
44862;SDS011;30597;49.628;10.850;2023-09-18T09:05:13;5.13;;;4.63;;
44862;SDS011;30597;49.628;10.850;2023-09-18T09:07:39;5.33;;;4.83;;
44862;SDS011;30597;49.628;10.850;2023-09-18T09:10:05;4.93;;;4.53;;
44862;SDS011;30597;49.628;10.850;2023-09-18T09:15:18;5.00;;;4.60;;
44862;SDS011;30597;49.628;10.850;2023-09-18T09:17:44;5.10;;;4.67;;
44862;SDS011;30597;49.628;10.850;2023-09-18T09:20:12;5.07;;;4.57;;
44862;SDS011;30597;49.628;10.850;2023-09-18T09:22:39;6.40;;;5.17;;
44862;SDS011;30597;49.628;10.850;2023-09-18T09:25:24;5.23;;;4.23;;
44862;SDS011;30597;49.628;10.850;2023-09-18T09:27:52;5.50;;;4.80;;
44862;SDS011;30597;49.628;10.850;2023-09-18T09:30:22;14.90;;;5.00;;
44862;SDS011;30597;49.628;10.850;2023-09-18T09:32:50;6.60;;;4.60;;
44862;SDS011;30597;49.628;10.850;2023-09-18T09:35:26;11.80;;;5.63;;
44862;SDS011;30597;49.628;10.850;2023-09-18T09:37:57;5.97;;;4.77;;
44862;SDS011;30597;49.628;10.850;2023-09-18T09:40:25;5.60;;;4.80;;
44862;SDS011;30597;49.628;10.850;2023-09-18T09:42:52;8.20;;;4.30;;
44862;SDS011;30597;49.628;10.850;2023-09-18T09:45:25;9.67;;;5.10;;
44862;SDS011;30597;49.628;10.850;2023-09-18T09:48:03;8.73;;;4.70;;
44862;SDS011;30597;49.628;10.850;2023-09-18T09:50:30;6.63;;;5.00;;
44862;SDS011;30597;49.628;10.850;2023-09-18T09:52:57;17.27;;;5.57;;
44862;SDS011;30597;49.628;10.850;2023-09-18T09:58:00;7.60;;;5.10;;
44862;SDS011;30597;49.628;10.850;2023-09-18T10:00:43;9.57;;;5.93;;
44862;SDS011;30597;49.628;10.850;2023-09-18T10:03:13;11.10;;;6.70;;
44862;SDS011;30597;49.628;10.850;2023-09-18T10:05:41;10.40;;;6.90;;
44862;SDS011;30597;49.628;10.850;2023-09-18T10:08:13;7.73;;;6.27;;
44862;SDS011;30597;49.628;10.850;2023-09-18T10:10:48;13.53;;;6.83;;
44862;SDS011;30597;49.628;10.850;2023-09-18T10:13:17;8.47;;;7.60;;
44862;SDS011;30597;49.628;10.850;2023-09-18T10:15:46;11.47;;;6.57;;
44862;SDS011;30597;49.628;10.850;2023-09-18T10:18:21;11.40;;;6.50;;
44862;SDS011;30597;49.628;10.850;2023-09-18T10:20:54;9.40;;;5.70;;
44862;SDS011;30597;49.628;10.850;2023-09-18T10:23:34;8.43;;;6.23;;
44862;SDS011;30597;49.628;10.850;2023-09-18T10:26:09;12.53;;;6.63;;
44862;SDS011;30597;49.628;10.850;2023-09-18T10:28:41;10.77;;;6.27;;
44862;SDS011;30597;49.628;10.850;2023-09-18T10:31:08;8.10;;;5.93;;
44862;SDS011;30597;49.628;10.850;2023-09-18T10:33:36;9.40;;;5.80;;
44862;SDS011;30597;49.628;10.850;2023-09-18T10:36:03;8.63;;;6.60;;
44862;SDS011;30597;49.628;10.850;2023-09-18T10:38:30;7.10;;;6.40;;
44862;SDS011;30597;49.628;10.850;2023-09-18T10:40:57;7.97;;;6.57;;
44862;SDS011;30597;49.628;10.850;2023-09-18T10:43:24;5.77;;;5.10;;
44862;SDS011;30597;49.628;10.850;2023-09-18T10:45:49;7.00;;;5.13;;
44862;SDS011;30597;49.628;10.850;2023-09-18T10:48:16;6.10;;;5.30;;
44862;SDS011;30597;49.628;10.850;2023-09-18T10:50:45;5.20;;;4.30;;
44862;SDS011;30597;49.628;10.850;2023-09-18T10:53:10;10.93;;;5.50;;
44862;SDS011;30597;49.628;10.850;2023-09-18T10:55:37;7.20;;;5.27;;
44862;SDS011;30597;49.628;10.850;2023-09-18T10:58:03;7.10;;;5.97;;
44862;SDS011;30597;49.628;10.850;2023-09-18T11:00:29;5.30;;;4.80;;
44862;SDS011;30597;49.628;10.850;2023-09-18T11:03:10;6.63;;;5.50;;
44862;SDS011;30597;49.628;10.850;2023-09-18T11:05:38;6.60;;;5.13;;
44862;SDS011;30597;49.628;10.850;2023-09-18T11:11:01;8.23;;;5.50;;
44862;SDS011;30597;49.628;10.850;2023-09-18T11:13:38;6.87;;;5.10;;
44862;SDS011;30597;49.628;10.850;2023-09-18T11:21:25;6.43;;;4.70;;
44862;SDS011;30597;49.628;10.850;2023-09-18T11:23:59;7.83;;;4.97;;
44862;SDS011;30597;49.628;10.850;2023-09-18T11:26:33;5.63;;;5.03;;
44862;SDS011;30597;49.628;10.850;2023-09-18T11:29:10;6.40;;;5.57;;
44862;SDS011;30597;49.628;10.850;2023-09-18T11:34:19;6.70;;;4.73;;
44862;SDS011;30597;49.628;10.850;2023-09-18T11:36:45;6.17;;;5.00;;
44862;SDS011;30597;49.628;10.850;2023-09-18T11:39:11;5.60;;;4.67;;
44862;SDS011;30597;49.628;10.850;2023-09-18T11:41:37;5.77;;;5.27;;
44862;SDS011;30597;49.628;10.850;2023-09-18T11:46:39;4.67;;;4.27;;
44862;SDS011;30597;49.628;10.850;2023-09-18T11:49:08;5.47;;;4.97;;
44862;SDS011;30597;49.628;10.850;2023-09-18T11:51:35;7.20;;;4.60;;
44862;SDS011;30597;49.628;10.850;2023-09-18T11:54:01;6.70;;;4.77;;
44862;SDS011;30597;49.628;10.850;2023-09-18T11:56:28;5.10;;;4.63;;
44862;SDS011;30597;49.628;10.850;2023-09-18T11:58:55;5.07;;;4.50;;
44862;SDS011;30597;49.628;10.850;2023-09-18T12:01:21;5.43;;;4.90;;
44862;SDS011;30597;49.628;10.850;2023-09-18T12:03:53;5.70;;;5.13;;
44862;SDS011;30597;49.628;10.850;2023-09-18T12:06:19;4.33;;;3.80;;
44862;SDS011;30597;49.628;10.850;2023-09-18T12:08:46;4.73;;;3.93;;
44862;SDS011;30597;49.628;10.850;2023-09-18T12:11:12;5.80;;;4.43;;
44862;SDS011;30597;49.628;10.850;2023-09-18T12:13:42;4.30;;;3.60;;
44862;SDS011;30597;49.628;10.850;2023-09-18T12:16:08;6.10;;;4.40;;
44862;SDS011;30597;49.628;10.850;2023-09-18T12:18:34;4.27;;;3.87;;
44862;SDS011;30597;49.628;10.850;2023-09-18T12:21:05;5.40;;;4.60;;
44862;SDS011;30597;49.628;10.850;2023-09-18T12:23:38;5.47;;;4.73;;
44862;SDS011;30597;49.628;10.850;2023-09-18T12:26:05;6.40;;;4.07;;
44862;SDS011;30597;49.628;10.850;2023-09-18T12:28:32;7.20;;;4.17;;
44862;SDS011;30597;49.628;10.850;2023-09-18T12:31:00;5.60;;;4.47;;
44862;SDS011;30597;49.628;10.850;2023-09-18T12:33:29;5.90;;;4.70;;
44862;SDS011;30597;49.628;10.850;2023-09-18T12:35:59;5.00;;;4.43;;
44862;SDS011;30597;49.628;10.850;2023-09-18T12:38:24;5.10;;;4.50;;
44862;SDS011;30597;49.628;10.850;2023-09-18T12:40:55;6.73;;;4.07;;
44862;SDS011;30597;49.628;10.850;2023-09-18T12:43:21;4.97;;;4.47;;
44862;SDS011;30597;49.628;10.850;2023-09-18T12:45:48;4.83;;;4.33;;
44862;SDS011;30597;49.628;10.850;2023-09-18T12:48:15;4.90;;;4.43;;
44862;SDS011;30597;49.628;10.850;2023-09-18T12:50:41;5.37;;;4.30;;
44862;SDS011;30597;49.628;10.850;2023-09-18T12:53:10;6.70;;;4.67;;
44862;SDS011;30597;49.628;10.850;2023-09-18T12:55:40;4.63;;;4.00;;
44862;SDS011;30597;49.628;10.850;2023-09-18T12:58:10;4.50;;;4.10;;
44862;SDS011;30597;49.628;10.850;2023-09-18T13:00:36;5.17;;;4.67;;
44862;SDS011;30597;49.628;10.850;2023-09-18T13:03:02;4.70;;;4.30;;
44862;SDS011;30597;49.628;10.850;2023-09-18T13:05:29;4.70;;;3.90;;
44862;SDS011;30597;49.628;10.850;2023-09-18T13:08:00;4.37;;;3.97;;
44862;SDS011;30597;49.628;10.850;2023-09-18T13:10:40;4.80;;;4.40;;
44862;SDS011;30597;49.628;10.850;2023-09-18T13:13:09;4.73;;;4.30;;
44862;SDS011;30597;49.628;10.850;2023-09-18T13:15:45;5.33;;;3.30;;
44862;SDS011;30597;49.628;10.850;2023-09-18T13:18:12;4.53;;;4.13;;
44862;SDS011;30597;49.628;10.850;2023-09-18T13:20:38;5.93;;;4.13;;
44862;SDS011;30597;49.628;10.850;2023-09-18T13:23:05;7.23;;;4.00;;
44862;SDS011;30597;49.628;10.850;2023-09-18T13:25:35;5.83;;;3.80;;
44862;SDS011;30597;49.628;10.850;2023-09-18T13:28:10;5.40;;;4.37;;
44862;SDS011;30597;49.628;10.850;2023-09-18T13:30:37;4.07;;;3.63;;
44862;SDS011;30597;49.628;10.850;2023-09-18T13:33:05;4.00;;;3.60;;
44862;SDS011;30597;49.628;10.850;2023-09-18T13:35:33;4.37;;;3.97;;
44862;SDS011;30597;49.628;10.850;2023-09-18T13:38:00;4.20;;;3.80;;
44862;SDS011;30597;49.628;10.850;2023-09-18T13:40:26;6.03;;;4.40;;
44862;SDS011;30597;49.628;10.850;2023-09-18T13:42:53;4.67;;;3.83;;
44862;SDS011;30597;49.628;10.850;2023-09-18T13:45:19;4.50;;;4.10;;
44862;SDS011;30597;49.628;10.850;2023-09-18T13:47:45;3.90;;;3.30;;
44862;SDS011;30597;49.628;10.850;2023-09-18T13:50:10;4.27;;;3.87;;
44862;SDS011;30597;49.628;10.850;2023-09-18T13:52:38;3.77;;;3.47;;
44862;SDS011;30597;49.628;10.850;2023-09-18T13:55:04;3.80;;;3.50;;
44862;SDS011;30597;49.628;10.850;2023-09-18T13:57:30;5.47;;;3.87;;
44862;SDS011;30597;49.628;10.850;2023-09-18T13:59:56;5.00;;;3.77;;
44862;SDS011;30597;49.628;10.850;2023-09-18T14:02:22;3.83;;;3.50;;
44862;SDS011;30597;49.628;10.850;2023-09-18T14:04:52;4.43;;;3.47;;
44862;SDS011;30597;49.628;10.850;2023-09-18T14:07:17;4.70;;;3.60;;
44862;SDS011;30597;49.628;10.850;2023-09-18T14:09:43;4.00;;;3.60;;
44862;SDS011;30597;49.628;10.850;2023-09-18T14:12:08;5.93;;;3.63;;
44862;SDS011;30597;49.628;10.850;2023-09-18T14:14:34;3.80;;;3.40;;
44862;SDS011;30597;49.628;10.850;2023-09-18T14:17:00;3.50;;;3.20;;
44862;SDS011;30597;49.628;10.850;2023-09-18T14:19:27;4.10;;;3.03;;
44862;SDS011;30597;49.628;10.850;2023-09-18T14:21:52;3.60;;;3.30;;
44862;SDS011;30597;49.628;10.850;2023-09-18T14:24:18;4.93;;;3.60;;
44862;SDS011;30597;49.628;10.850;2023-09-18T14:26:50;3.80;;;3.40;;
44862;SDS011;30597;49.628;10.850;2023-09-18T14:29:16;3.90;;;3.43;;
44862;SDS011;30597;49.628;10.850;2023-09-18T14:31:42;3.50;;;3.20;;
44862;SDS011;30597;49.628;10.850;2023-09-18T14:34:08;3.27;;;3.07;;
44862;SDS011;30597;49.628;10.850;2023-09-18T14:36:34;3.13;;;2.90;;
44862;SDS011;30597;49.628;10.850;2023-09-18T14:39:01;4.97;;;3.67;;
44862;SDS011;30597;49.628;10.850;2023-09-18T14:41:32;3.47;;;2.83;;
44862;SDS011;30597;49.628;10.850;2023-09-18T14:43:58;3.80;;;2.97;;
44862;SDS011;30597;49.628;10.850;2023-09-18T14:46:24;3.07;;;2.77;;
44862;SDS011;30597;49.628;10.850;2023-09-18T14:48:50;3.37;;;3.07;;
44862;SDS011;30597;49.628;10.850;2023-09-18T14:51:16;3.13;;;2.83;;
44862;SDS011;30597;49.628;10.850;2023-09-18T14:53:42;4.00;;;2.90;;